Carnival Valor — H3VR — position and weather

sailwx.info

Track history (hours):
 
Tides and Currents Weather Stations Pressure Air Temp Water Temp Dewpoint Dewpoint Depression Visibility Wind Speed Wind Dir Waves Ship Positions

Carnival Valor

Last reported at 2015-Jan-31 12:12 UTC. Time now 2015-Jan-31 13:03 UTC.
Position N 18°01' W 063°03'.

Type: Ship. MMSI: 354298000.

Date/timePositionNaut miles runAvg speedWind from/ knotsBaromVisibWave heightAir tempDewpointWater temp
2015-Jan-31 12:12N 18°01' W 063°03'0 0.0
2015-Jan-31 11:30N 18°01' W 063°03'1 1.2
2015-Jan-31 10:30N 17°60' W 063°04'9 9.1
2015-Jan-31 09:27N 18°00' W 063°14'910.0
2015-Jan-31 08:31N 18°04' W 063°23'9 9.6
2015-Jan-31 07:33N 18°07' W 063°32'7 7.5
2015-Jan-31 06:33N 18°06' W 063°40'8 8.0
2015-Jan-31 05:33N 17°59' W 063°35'1010.0
2015-Jan-31 04:33N 17°59' W 063°24'1010.1
2015-Jan-31 03:33N 17°52' W 063°17'1010.0
2015-Jan-31 02:33N 17°44' W 063°10'1110.0
2015-Jan-31 01:24N 17°33' W 063°07'59 3.6
2015-Jan-30 09:18N 16°44' W 062°33'1816.0
2015-Jan-30 08:10N 16°28' W 062°24'  
2015-Jan-26 23:28N 18°04' W 064°43'1111.2
2015-Jan-26 22:30N 18°10' W 064°53'8 0.6
2015-Jan-26 10:13N 18°17' W 064°56'78 2.2
2015-Jan-24 23:18N 18°02' W 063°35'1215.8
2015-Jan-24 22:33N 18°01' W 063°23'1615.7
2015-Jan-24 21:32N 18°00' W 063°06'3 2.5
2015-Jan-24 20:23N 18°01' W 063°03'0 0.0
2015-Jan-24 19:31N 18°01' W 063°03'0 0.0
2015-Jan-24 18:28N 18°01' W 063°03'0 0.0
2015-Jan-24 17:21N 18°01' W 063°03'0 0.0
2015-Jan-24 16:21N 18°01' W 063°03'0 0.0
2015-Jan-24 15:15N 18°01' W 063°03'0 0.0
2015-Jan-24 14:20N 18°01' W 063°03'0 0.0
2015-Jan-24 13:32N 18°01' W 063°03'100 3.4
2015-Jan-23 08:10N 16°28' W 062°24'  
Track history (hours):
 
Tides and Currents Weather Stations Pressure Air Temp Water Temp Dewpoint Dewpoint Depression Visibility Wind Speed Wind Dir Waves Ship Positions

Carnival Valor

Last reported at 2015-Jan-31 12:12 UTC. Time now 2015-Jan-31 13:03 UTC.
Position N 18°01' W 063°03'.

Type: Ship. MMSI: 354298000.

Date/timePositionNaut miles runAvg speedWind from/ knotsBaromVisibWave heightAir tempDewpointWater temp
2015-Jan-31 12:12N 18°01' W 063°03'0 0.0
2015-Jan-31 11:30N 18°01' W 063°03'1 1.2
2015-Jan-31 10:30N 17°60' W 063°04'9 9.1
2015-Jan-31 09:27N 18°00' W 063°14'910.0
2015-Jan-31 08:31N 18°04' W 063°23'9 9.6
2015-Jan-31 07:33N 18°07' W 063°32'7 7.5
2015-Jan-31 06:33N 18°06' W 063°40'8 8.0
2015-Jan-31 05:33N 17°59' W 063°35'1010.0
2015-Jan-31 04:33N 17°59' W 063°24'1010.1
2015-Jan-31 03:33N 17°52' W 063°17'1010.0
2015-Jan-31 02:33N 17°44' W 063°10'1110.0
2015-Jan-31 01:24N 17°33' W 063°07'59 3.6
2015-Jan-30 09:18N 16°44' W 062°33'1816.0
2015-Jan-30 08:10N 16°28' W 062°24'  
2015-Jan-26 23:28N 18°04' W 064°43'1111.2
2015-Jan-26 22:30N 18°10' W 064°53'8 0.6
2015-Jan-26 10:13N 18°17' W 064°56'78 2.2
2015-Jan-24 23:18N 18°02' W 063°35'1215.8
2015-Jan-24 22:33N 18°01' W 063°23'1615.7
2015-Jan-24 21:32N 18°00' W 063°06'3 2.5
2015-Jan-24 20:23N 18°01' W 063°03'0 0.0
2015-Jan-24 19:31N 18°01' W 063°03'0 0.0
2015-Jan-24 18:28N 18°01' W 063°03'0 0.0
2015-Jan-24 17:21N 18°01' W 063°03'0 0.0
2015-Jan-24 16:21N 18°01' W 063°03'0 0.0
2015-Jan-24 15:15N 18°01' W 063°03'0 0.0
2015-Jan-24 14:20N 18°01' W 063°03'0 0.0
2015-Jan-24 13:32N 18°01' W 063°03'100 3.4
2015-Jan-23 08:10N 16°28' W 062°24'  

Dump ship's entire track history